Time;durP1;ratioP1;P1;durP2;ratioP2;P2;SDS_P1;SDS_P2;PMS_P1;PMS_P2;Temp;Humidity;BMP_temperature;BMP_pressure;BME280_temperature;BME280_humidity;BME280_pressure;Samples;Min_cycle;Max_cycle;Signal;HPM_P1;HPM_P2
2022/03/21 00:00:05;;;;;;;19.15;13.43;;;26.10;99.90;;;;;;1884274;75;21109;-83
2022/03/21 00:02:36;;;;;;;21.52;14.25;;;26.10;99.90;;;;;;1871173;76;21120;-83
2022/03/21 00:05:10;;;;;;;14.87;12.65;;;26.10;99.90;;;;;;1855232;76;21186;-84
2022/03/21 00:07:41;;;;;;;19.00;14.07;;;26.10;99.90;;;;;;1878038;76;21096;-85
2022/03/21 00:10:12;;;;;;;17.90;13.65;;;26.10;99.90;;;;;;1935200;72;21229;-83
2022/03/21 00:12:43;;;;;;;17.10;12.60;;;26.20;99.90;;;;;;1910837;73;21100;-84
2022/03/21 00:15:14;;;;;;;17.75;13.10;;;26.20;99.90;;;;;;1940728;72;21072;-84
2022/03/21 00:17:45;;;;;;;18.00;13.32;;;26.20;99.90;;;;;;1914035;73;21094;-85
2022/03/21 00:20:17;;;;;;;19.87;14.30;;;26.20;99.90;;;;;;1932491;72;21167;-72
2022/03/21 00:22:48;;;;;;;20.57;14.80;;;26.20;99.90;;;;;;1934822;73;21201;-72
2022/03/21 00:25:19;;;;;;;19.25;14.60;;;26.30;99.90;;;;;;1911622;73;21237;-72
2022/03/21 00:27:51;;;;;;;22.27;15.25;;;26.30;99.90;;;;;;1916121;73;21641;-72
2022/03/21 00:30:22;;;;;;;22.27;14.47;;;26.40;99.90;;;;;;1877801;74;21563;-71
2022/03/21 00:32:53;;;;;;;18.42;14.33;;;26.40;99.90;;;;;;1894283;75;21536;-71
2022/03/21 00:35:25;;;;;;;19.00;14.80;;;26.40;99.90;;;;;;1887659;75;21148;-71
2022/03/21 00:37:58;;;;;;;18.85;15.03;;;26.40;99.90;;;;;;1861694;76;21088;-71
2022/03/21 00:40:29;;;;;;;22.62;15.28;;;26.50;99.90;;;;;;1902745;75;21199;-71
2022/03/21 00:43:03;;;;;;;22.82;14.45;;;26.50;99.90;;;;;;1837123;76;21160;-71
2022/03/21 00:45:34;;;;;;;19.50;13.80;;;26.50;99.90;;;;;;1859516;76;21291;-70
2022/03/21 00:48:06;;;;;;;24.85;14.73;;;26.50;99.90;;;;;;1922124;72;21583;-71
2022/03/21 00:50:45;;;;;;;26.35;14.45;;;26.50;99.90;;;;;;1933018;72;21139;-71
2022/03/21 00:53:17;;;;;;;18.50;14.00;;;26.50;99.90;;;;;;1937996;73;21143;-71
2022/03/21 00:55:49;;;;;;;18.57;13.75;;;26.50;99.90;;;;;;1931528;72;21183;-71
2022/03/21 00:58:21;;;;;;;18.73;13.55;;;26.50;99.90;;;;;;1939531;72;21060;-71
2022/03/21 01:00:52;;;;;;;21.70;14.55;;;26.50;99.90;;;;;;1933860;72;21622;-72
2022/03/21 01:03:23;;;;;;;20.82;14.33;;;26.60;99.90;;;;;;1912604;73;21131;-72
2022/03/21 01:05:54;;;;;;;19.82;14.28;;;26.60;99.90;;;;;;1915290;73;21624;-71
2022/03/21 01:08:32;;;;;;;21.82;13.98;;;26.60;99.90;;;;;;1911946;73;21540;-71
2022/03/21 01:11:04;;;;;;;17.73;13.58;;;26.60;99.90;;;;;;1913002;73;21733;-71
2022/03/21 01:13:41;;;;;;;20.35;14.47;;;26.60;99.90;;;;;;1917937;72;21214;-73
2022/03/21 01:16:13;;;;;;;21.35;14.25;;;26.60;99.90;;;;;;1917201;73;21186;-72
2022/03/21 01:18:47;;;;;;;20.17;14.00;;;26.70;99.90;;;;;;1924114;72;21107;-71
2022/03/21 01:21:16;;;;;;;17.80;13.18;;;26.70;99.90;;;;;;1921683;72;21706;-72
2022/03/21 01:23:48;;;;;;;20.65;13.83;;;26.80;99.90;;;;;;1922307;72;21576;-72
2022/03/21 01:26:19;;;;;;;23.30;14.20;;;26.80;99.90;;;;;;1931353;73;21591;-72
2022/03/21 01:28:50;;;;;;;19.23;13.83;;;26.90;99.90;;;;;;1941047;72;21264;-72
2022/03/21 01:31:21;;;;;;;19.50;14.23;;;26.90;99.90;;;;;;1919010;73;21318;-71
2022/03/21 01:33:54;;;;;;;22.25;14.35;;;27.00;99.90;;;;;;1931356;73;21201;-72
2022/03/21 01:36:25;;;;;;;21.52;16.40;;;27.10;99.90;;;;;;1932210;72;21213;-72
2022/03/21 01:38:56;;;;;;;20.77;14.68;;;27.10;99.90;;;;;;1937068;73;21195;-72
2022/03/21 01:41:29;;;;;;;19.77;13.88;;;27.20;99.90;;;;;;1917309;73;21167;-71
2022/03/21 01:44:02;;;;;;;21.42;14.23;;;27.30;99.90;;;;;;1921753;72;21123;-72
2022/03/21 01:46:34;;;;;;;20.57;13.88;;;27.30;99.60;;;;;;1909223;73;21157;-72
2022/03/21 01:49:07;;;;;;;17.50;13.53;;;27.30;99.70;;;;;;1934087;72;21149;-72
2022/03/21 01:51:40;;;;;;;17.02;13.80;;;27.30;99.50;;;;;;1923364;72;21687;-72
2022/03/21 01:56:47;;;;;;;16.87;13.40;;;27.50;99.40;;;;;;1921907;73;21583;-72
2022/03/21 01:59:20;;;;;;;15.85;13.55;;;27.50;99.20;;;;;;1935902;72;21704;-72
2022/03/21 02:01:52;;;;;;;17.95;13.78;;;27.60;99.20;;;;;;1922229;73;21217;-72
2022/03/21 02:04:23;;;;;;;19.12;13.90;;;27.70;99.10;;;;;;1922488;72;21485;-72
2022/03/21 02:06:55;;;;;;;19.32;15.00;;;27.70;98.80;;;;;;1931345;72;21694;-72
2022/03/21 02:09:26;;;;;;;17.90;13.93;;;27.80;98.80;;;;;;1933024;72;21177;-71
2022/03/21 02:11:58;;;;;;;22.77;15.45;;;27.90;98.10;;;;;;1932683;73;21085;-71
2022/03/21 02:14:29;;;;;;;22.07;15.63;;;27.90;98.10;;;;;;1943483;73;21095;-72
2022/03/21 02:17:00;;;;;;;22.40;16.23;;;28.10;97.80;;;;;;1934877;72;21194;-72
2022/03/21 02:19:33;;;;;;;20.00;15.78;;;28.10;97.60;;;;;;1930728;73;21216;-71
2022/03/21 02:22:07;;;;;;;19.48;15.30;;;28.20;97.10;;;;;;1924573;72;21147;-72
2022/03/21 02:24:40;;;;;;;21.30;16.23;;;28.30;96.50;;;;;;1915149;73;21057;-72
2022/03/21 02:27:12;;;;;;;18.12;15.78;;;28.40;96.60;;;;;;1924360;73;21073;-71
2022/03/21 02:29:45;;;;;;;18.87;16.07;;;28.50;96.50;;;;;;1917103;73;21162;-72
2022/03/21 02:32:17;;;;;;;23.45;17.32;;;28.60;96.30;;;;;;1932292;73;21108;-72
2022/03/21 02:34:49;;;;;;;20.00;15.98;;;28.70;96.10;;;;;;1868677;76;21243;-72
2022/03/21 02:37:20;;;;;;;21.95;16.60;;;28.80;95.70;;;;;;1933847;73;21128;-72
2022/03/21 02:39:52;;;;;;;20.80;17.17;;;28.90;95.60;;;;;;1923179;73;21131;-72
2022/03/21 02:42:24;;;;;;;21.70;16.62;;;29.10;95.60;;;;;;1926743;73;21152;-71
2022/03/21 02:44:56;;;;;;;22.67;17.48;;;29.20;95.60;;;;;;1931404;73;21103;-71
2022/03/21 02:47:27;;;;;;;21.20;17.20;;;29.30;94.90;;;;;;1927954;73;21588;-71
2022/03/21 02:49:58;;;;;;;18.95;15.83;;;;;;;;;;1930385;73;21233;-71
2022/03/21 02:52:31;;;;;;;21.82;16.05;;;29.50;94.10;;;;;;1922041;73;21143;-70
2022/03/21 02:55:02;;;;;;;19.50;15.75;;;29.60;94.20;;;;;;1920104;73;21120;-71
2022/03/21 02:57:33;;;;;;;22.93;15.98;;;29.70;94.30;;;;;;1930791;73;21142;-71
2022/03/21 03:00:05;;;;;;;18.10;14.50;;;29.80;93.70;;;;;;1871320;75;21099;-70
2022/03/21 03:02:37;;;;;;;20.12;14.68;;;29.90;93.40;;;;;;1932229;73;21136;-71
2022/03/21 03:05:09;;;;;;;18.73;14.98;;;30.00;92.80;;;;;;1925168;73;21688;-70
2022/03/21 03:07:40;;;;;;;20.00;16.23;;;30.10;92.80;;;;;;1931733;73;21123;-71
2022/03/21 03:10:11;;;;;;;20.85;15.30;;;30.30;93.10;;;;;;1937214;73;21073;-71
2022/03/21 03:12:42;;;;;;;19.23;15.35;;;30.40;92.20;;;;;;1937134;73;21144;-70
2022/03/21 03:15:14;;;;;;;18.73;15.03;;;30.40;92.00;;;;;;1905008;74;21721;-71
2022/03/21 03:17:45;;;;;;;15.38;12.88;;;30.50;92.30;;;;;;1904740;74;21139;-70
2022/03/21 03:20:17;;;;;;;14.28;10.55;;;30.70;91.10;;;;;;1907620;74;21259;-70
2022/03/21 03:22:48;;;;;;;14.65;11.05;;;30.70;86.20;;;;;;1943072;73;21665;-71
2022/03/21 03:25:23;;;;;;;14.70;11.90;;;30.90;86.00;;;;;;1931576;73;21139;-71
2022/03/21 03:27:53;;;;;;;14.60;11.93;;;31.00;86.60;;;;;;1923830;73;21194;-73
2022/03/21 03:30:24;;;;;;;17.82;12.95;;;31.00;86.40;;;;;;1941418;73;21182;-71
2022/03/21 03:32:56;;;;;;;14.18;11.63;;;31.20;86.10;;;;;;1930904;73;21563;-71
2022/03/21 03:35:27;;;;;;;14.98;11.63;;;31.20;86.00;;;;;;1947837;73;21146;-71
2022/03/21 03:37:57;;;;;;;14.20;11.88;;;;;;;;;;1946572;73;21053;-71
2022/03/21 03:40:28;;;;;;;16.02;11.70;;;31.40;83.30;;;;;;1913221;73;21218;-71
2022/03/21 03:43:00;;;;;;;14.33;12.30;;;31.50;85.50;;;;;;1918898;73;21604;-71
2022/03/21 03:45:52;;;;;;;11.65;10.38;;;31.60;84.40;;;;;;1927835;73;22055;-71
2022/03/21 03:48:22;;;;;;;15.60;12.25;;;31.70;83.70;;;;;;1914541;73;21076;-72
2022/03/21 03:50:54;;;;;;;16.90;12.20;;;31.80;83.40;;;;;;1896482;75;21180;-72
2022/03/21 03:53:25;;;;;;;14.73;12.68;;;31.90;83.00;;;;;;1929863;70;21089;-70
2022/03/21 03:55:55;;;;;;;16.97;12.43;;;31.90;83.40;;;;;;1969862;70;21421;-71
2022/03/21 03:58:26;;;;;;;15.90;12.75;;;31.80;83.80;;;;;;1923450;72;21196;-70
2022/03/21 04:01:04;;;;;;;17.48;12.13;;;31.60;83.80;;;;;;1940604;70;21083;-70
2022/03/21 04:06:08;;;;;;;15.75;12.05;;;31.40;85.20;;;;;;1936791;70;21103;-71
2022/03/21 04:08:40;;;;;;;14.83;12.07;;;31.40;84.40;;;;;;1936592;72;21232;-70
2022/03/21 04:11:11;;;;;;;14.83;13.05;;;31.40;85.40;;;;;;1956991;72;21672;-71
2022/03/21 04:13:43;;;;;;;19.00;12.78;;;31.50;85.50;;;;;;1914048;72;21665;-71
2022/03/21 04:16:15;;;;;;;14.95;12.60;;;31.70;85.40;;;;;;1894802;73;21713;-72
2022/03/21 04:18:46;;;;;;;13.25;11.57;;;31.80;84.80;;;;;;1894668;72;21142;-78
2022/03/21 04:21:18;;;;;;;15.15;11.12;;;32.00;84.10;;;;;;1954267;72;21101;-73
2022/03/21 04:23:49;;;;;;;14.28;11.10;;;;;;;;;;1936763;72;21174;-72
2022/03/21 04:26:20;;;;;;;18.48;11.73;;;32.40;80.40;;;;;;1903906;74;21151;-71
2022/03/21 04:28:51;;;;;;;12.50;11.08;;;32.60;82.10;;;;;;1922353;73;21505;-72
2022/03/21 04:31:23;;;;;;;14.78;11.38;;;32.80;79.60;;;;;;1896346;74;21240;-72
2022/03/21 04:33:54;;;;;;;13.68;11.70;;;32.90;79.20;;;;;;1901427;73;21179;-72
2022/03/21 04:36:25;;;;;;;12.88;11.55;;;33.00;78.70;;;;;;1929867;72;21068;-72
2022/03/21 04:38:56;;;;;;;14.03;11.12;;;33.10;77.60;;;;;;1908783;72;21131;-73
2022/03/21 04:41:27;;;;;;;13.80;11.12;;;33.10;77.00;;;;;;1935389;72;21129;-73
2022/03/21 04:43:57;;;;;;;12.40;11.10;;;33.20;76.30;;;;;;1918406;72;21528;-72
2022/03/21 04:46:28;;;;;;;12.20;10.90;;;33.20;77.50;;;;;;1925236;73;21118;-72
2022/03/21 04:48:59;;;;;;;13.40;11.78;;;33.30;75.50;;;;;;1895113;75;21052;-75
2022/03/21 04:51:30;;;;;;;13.35;11.00;;;33.20;75.70;;;;;;1874855;73;21658;-76
2022/03/21 04:54:01;;;;;;;13.15;10.93;;;33.30;75.60;;;;;;1896909;73;21516;-75
2022/03/21 04:56:32;;;;;;;12.93;11.10;;;33.40;74.90;;;;;;1925469;74;21149;-75
2022/03/21 04:59:03;;;;;;;15.45;11.55;;;33.40;74.30;;;;;;1917639;74;21084;-76
2022/03/21 05:01:34;;;;;;;12.10;10.80;;;33.30;74.80;;;;;;1885198;74;21659;-74
2022/03/21 05:04:07;;;;;;;12.25;10.95;;;33.20;75.10;;;;;;1895763;73;21635;-75
2022/03/21 05:06:39;;;;;;;15.10;11.60;;;33.10;76.20;;;;;;1921170;74;21065;-76
2022/03/21 05:09:09;;;;;;;12.78;11.33;;;33.00;76.70;;;;;;1910656;74;21109;-77
2022/03/21 05:11:40;;;;;;;14.53;12.05;;;32.90;76.50;;;;;;1918825;73;21575;-74
2022/03/21 05:14:11;;;;;;;14.15;11.85;;;32.80;77.00;;;;;;1938560;72;21122;-73
2022/03/21 05:16:43;;;;;;;14.83;12.30;;;32.70;77.70;;;;;;1933687;73;21181;-75
2022/03/21 05:19:14;;;;;;;14.58;12.35;;;32.70;77.30;;;;;;1899123;74;21063;-75
2022/03/21 05:21:45;;;;;;;15.18;11.63;;;32.60;78.10;;;;;;1923779;73;21096;-75
2022/03/21 05:31:53;;;;;;;15.13;11.97;;;32.70;80.70;;;;;;1919742;72;21205;-86
2022/03/21 05:36:57;;;;;;;13.55;11.60;;;32.70;78.80;;;;;;1938222;73;21170;-85
2022/03/21 05:39:28;;;;;;;13.68;12.15;;;32.70;77.60;;;;;;1939076;73;21103;-81
2022/03/21 05:42:03;;;;;;;13.05;11.65;;;32.60;76.80;;;;;;1943116;73;21212;-84
2022/03/21 05:44:34;;;;;;;14.45;11.75;;;32.50;77.60;;;;;;1940055;73;21648;-82
2022/03/21 05:47:06;;;;;;;15.20;12.15;;;32.40;78.40;;;;;;1913849;73;21124;-83
2022/03/21 05:49:37;;;;;;;18.15;12.80;;;32.30;79.00;;;;;;1926755;73;21182;-81
2022/03/21 05:52:08;;;;;;;14.00;12.28;;;32.30;78.80;;;;;;1910912;74;21189;-82
2022/03/21 05:54:40;;;;;;;15.18;12.35;;;32.30;80.10;;;;;;1938270;73;21068;-84
2022/03/21 05:57:11;;;;;;;16.20;12.43;;;32.30;78.60;;;;;;1944004;73;21124;-83
2022/03/21 06:02:16;;;;;;;14.93;12.88;;;32.40;79.50;;;;;;1947567;73;21229;-82
2022/03/21 06:04:48;;;;;;;14.55;12.82;;;32.50;78.80;;;;;;1935715;73;21082;-82
2022/03/21 06:07:19;;;;;;;15.90;12.70;;;32.50;79.90;;;;;;1921627;74;21123;-81
2022/03/21 06:09:50;;;;;;;14.07;12.18;;;32.50;78.90;;;;;;1915347;74;21235;-85
2022/03/21 06:12:25;;;;;;;16.37;12.13;;;32.50;78.20;;;;;;1911553;74;21051;-85
2022/03/21 06:14:55;;;;;;;15.38;12.33;;;32.50;77.60;;;;;;1917150;74;21181;-85
2022/03/21 06:17:27;;;;;;;14.07;12.07;;;32.60;77.40;;;;;;1943684;73;22268;-86
2022/03/21 06:19:58;;;;;;;13.85;11.73;;;32.80;77.40;;;;;;1944010;73;21123;-86
2022/03/21 06:22:30;;;;;;;14.35;12.68;;;32.90;76.90;;;;;;1939285;73;21237;-85
2022/03/21 06:25:01;;;;;;;15.03;12.35;;;33.00;75.70;;;;;;1938852;73;21138;-86
2022/03/21 06:27:34;;;;;;;14.13;12.63;;;33.10;76.10;;;;;;1903026;75;21143;-84
2022/03/21 06:30:07;;;;;;;13.90;12.50;;;33.10;76.30;;;;;;1906724;73;21115;-84
2022/03/21 06:32:39;;;;;;;13.98;12.15;;;33.00;76.10;;;;;;1933767;73;21241;-84
2022/03/21 06:35:10;;;;;;;13.50;12.05;;;33.10;75.50;;;;;;1912833;74;21212;-84
2022/03/21 06:37:42;;;;;;;14.58;12.07;;;33.10;73.80;;;;;;1911690;73;21140;-84
2022/03/21 06:40:13;;;;;;;15.40;11.90;;;33.20;74.10;;;;;;1910864;73;21154;-85
2022/03/21 06:42:44;;;;;;;12.68;11.12;;;33.20;73.80;;;;;;1904974;74;21171;-85
2022/03/21 06:45:15;;;;;;;14.03;12.50;;;33.30;74.20;;;;;;1937285;72;21107;-85
2022/03/21 06:47:46;;;;;;;15.05;11.65;;;33.30;74.20;;;;;;1908810;72;21083;-86
2022/03/21 06:50:23;;;;;;;13.60;12.00;;;33.40;73.10;;;;;;1923670;73;21648;-86
2022/03/21 06:52:54;;;;;;;13.40;12.00;;;33.50;71.60;;;;;;1917327;74;21196;-85
2022/03/21 06:55:25;;;;;;;13.35;11.88;;;33.50;72.60;;;;;;1907218;74;21256;-86
2022/03/21 06:57:56;;;;;;;12.60;11.30;;;33.60;71.40;;;;;;1906356;74;21214;-84
2022/03/21 07:00:27;;;;;;;11.73;10.53;;;33.60;70.10;;;;;;1911680;74;21124;-83
2022/03/21 07:02:58;;;;;;;14.15;11.80;;;33.60;70.70;;;;;;1906024;74;21099;-86
2022/03/21 07:05:30;;;;;;;11.95;10.63;;;33.50;71.50;;;;;;1903023;73;21177;-85
2022/03/21 07:08:01;;;;;;;13.65;11.43;;;33.50;70.60;;;;;;1879807;75;21080;-85
2022/03/21 07:10:33;;;;;;;13.22;10.95;;;33.50;69.30;;;;;;1912585;74;21151;-85
2022/03/21 07:13:05;;;;;;;12.05;10.85;;;33.50;70.20;;;;;;1934244;73;21221;-84
2022/03/21 07:15:37;;;;;;;12.53;11.22;;;33.50;71.60;;;;;;1916036;73;21111;-84
2022/03/21 07:18:09;;;;;;;16.55;11.80;;;33.40;70.30;;;;;;1911918;75;21217;-86
2022/03/21 07:20:43;;;;;;;13.32;11.00;;;33.40;70.90;;;;;;1903351;74;21129;-86
2022/03/21 07:23:13;;;;;;;12.10;10.72;;;33.30;70.50;;;;;;1925986;74;21076;-85
2022/03/21 07:25:44;;;;;;;13.65;11.93;;;33.30;72.10;;;;;;1912030;74;21212;-86
2022/03/21 07:28:15;;;;;;;12.85;11.43;;;33.20;72.30;;;;;;1911173;75;21265;-85
2022/03/21 07:30:46;;;;;;;14.85;11.90;;;33.20;72.80;;;;;;1905525;74;21111;-85
2022/03/21 07:33:18;;;;;;;14.23;11.33;;;33.10;72.60;;;;;;1885522;74;21177;-86
2022/03/21 07:35:49;;;;;;;13.80;11.38;;;33.10;72.40;;;;;;1905787;74;21165;-84
2022/03/21 07:38:22;;;;;;;13.10;11.65;;;33.00;72.40;;;;;;1892017;73;21216;-85
2022/03/21 07:40:53;;;;;;;14.25;11.80;;;33.00;73.30;;;;;;1909590;74;21183;-84
2022/03/21 07:43:24;;;;;;;13.35;11.90;;;33.10;73.50;;;;;;1896060;74;21096;-86
2022/03/21 07:48:27;;;;;;;24.12;9.75;;;33.00;74.60;;;;;;1905458;72;21104;-84
2022/03/21 07:50:58;;;;;;;23.80;9.60;;;32.90;74.10;;;;;;1891387;73;21174;-85
2022/03/21 07:53:29;;;;;;;26.42;9.80;;;32.70;75.00;;;;;;1884736;74;21162;-86
2022/03/21 07:56:00;;;;;;;19.77;10.18;;;32.50;76.70;;;;;;1903095;73;21105;-85
2022/03/21 07:58:32;;;;;;;19.87;11.12;;;32.30;77.60;;;;;;1894065;74;21256;-85
2022/03/21 08:01:06;;;;;;;25.25;12.80;;;32.30;79.30;;;;;;1905223;73;21206;-84
2022/03/21 08:03:37;;;;;;;19.45;11.45;;;32.20;86.00;;;;;;1941523;73;21159;-85
2022/03/21 08:06:10;;;;;;;15.00;9.48;;;32.00;85.40;;;;;;1915602;73;21162;-85
2022/03/21 08:08:40;;;;;;;15.50;9.85;;;31.70;87.40;;;;;;1919587;73;21123;-86
2022/03/21 08:11:11;;;;;;;16.30;8.93;;;31.30;88.60;;;;;;1934322;73;21132;-83
2022/03/21 08:13:42;;;;;;;18.82;9.48;;;31.00;88.80;;;;;;1932036;73;21187;-87
2022/03/21 08:16:13;;;;;;;15.05;8.38;;;30.70;90.50;;;;;;1929810;73;21107;-85
2022/03/21 08:18:44;;;;;;;17.00;8.48;;;30.50;91.30;;;;;;1942765;72;21126;-86
2022/03/21 08:21:15;;;;;;;12.47;9.23;;;30.30;91.00;;;;;;1947429;72;21101;-85
2022/03/21 08:23:47;;;;;;;13.83;8.48;;;30.30;90.60;;;;;;1923472;72;21123;-87
2022/03/21 08:26:18;;;;;;;15.15;7.62;;;30.30;90.60;;;;;;1917125;73;21087;-85
2022/03/21 08:28:49;;;;;;;13.13;7.95;;;30.30;90.60;;;;;;1939056;73;21136;-85
2022/03/21 08:31:20;;;;;;;10.98;6.92;;;30.30;91.10;;;;;;1930428;73;21098;-84
2022/03/21 08:33:55;;;;;;;11.48;6.70;;;30.30;90.80;;;;;;1925736;73;21187;-86
2022/03/21 08:36:27;;;;;;;13.98;6.72;;;30.30;90.10;;;;;;1947642;72;21151;-86
2022/03/21 08:39:02;;;;;;;14.83;7.45;;;30.30;90.00;;;;;;1934501;73;21132;-85
2022/03/21 08:46:58;;;;;;;12.45;8.05;;;30.50;90.10;;;;;;1904526;73;21105;-87
2022/03/21 08:49:41;;;;;;;14.73;8.28;;;30.50;90.10;;;;;;1906264;75;21088;-85
2022/03/21 08:52:13;;;;;;;9.33;6.70;;;30.60;90.20;;;;;;1909329;75;21281;-86
2022/03/21 08:54:43;;;;;;;10.85;5.60;;;30.70;89.30;;;;;;1907016;75;21181;-86
2022/03/21 08:57:15;;;;;;;7.75;5.80;;;30.70;86.60;;;;;;1901148;75;21133;-86
2022/03/21 08:59:47;;;;;;;7.90;6.30;;;30.70;84.80;;;;;;1890080;74;21138;-86
2022/03/21 09:02:18;;;;;;;9.98;6.42;;;30.70;84.80;;;;;;1896682;75;21691;-86
2022/03/21 09:04:49;;;;;;;10.70;7.50;;;30.80;85.40;;;;;;1865206;75;21174;-86
2022/03/21 09:07:20;;;;;;;11.10;7.85;;;30.90;85.10;;;;;;1921138;74;21554;-87
2022/03/21 09:09:51;;;;;;;11.83;8.60;;;30.90;85.20;;;;;;1891408;75;21197;-87
2022/03/21 09:12:22;;;;;;;11.35;7.83;;;30.90;84.90;;;;;;1883784;74;21122;-87
2022/03/21 09:14:53;;;;;;;13.60;8.23;;;30.90;85.50;;;;;;1894853;76;21119;-87
2022/03/21 09:17:25;;;;;;;8.98;7.42;;;31.00;84.90;;;;;;1895093;74;21138;-87
2022/03/21 09:19:59;;;;;;;9.58;7.72;;;31.00;84.80;;;;;;1894729;74;21088;-85
2022/03/21 09:22:33;;;;;;;10.28;7.33;;;31.00;84.40;;;;;;1923856;73;21547;-86
2022/03/21 09:25:05;;;;;;;9.65;7.15;;;31.10;83.80;;;;;;1884172;75;21224;-85
2022/03/21 09:27:41;;;;;;;12.37;7.80;;;31.10;83.90;;;;;;1890521;76;21703;-86
2022/03/21 09:30:11;;;;;;;12.15;7.03;;;31.10;83.90;;;;;;1922910;74;21608;-87
2022/03/21 09:32:42;;;;;;;11.15;6.90;;;31.10;83.90;;;;;;1924481;74;21150;-86
2022/03/21 09:35:14;;;;;;;12.20;7.17;;;31.10;84.00;;;;;;1911506;74;21643;-87
2022/03/21 09:37:47;;;;;;;9.05;7.20;;;31.20;83.50;;;;;;1931386;74;21141;-86
2022/03/21 09:40:21;;;;;;;13.70;7.05;;;31.10;83.10;;;;;;1926618;74;21147;-86
2022/03/21 09:42:53;;;;;;;10.15;7.10;;;31.20;82.30;;;;;;1887375;76;21131;-86
2022/03/21 09:45:29;;;;;;;9.13;6.87;;;31.20;81.80;;;;;;1888119;76;21216;-86
2022/03/21 09:48:09;;;;;;;8.78;6.92;;;31.20;80.90;;;;;;1890304;74;21208;-88
2022/03/21 09:50:37;;;;;;;10.68;7.05;;;31.20;81.70;;;;;;1903507;75;21078;-88
2022/03/21 09:53:09;;;;;;;10.55;7.12;;;31.20;81.80;;;;;;1887383;74;21138;-88
2022/03/21 09:55:42;;;;;;;10.78;7.62;;;31.20;81.80;;;;;;1888428;76;21197;-86
2022/03/21 09:58:13;;;;;;;10.40;6.92;;;31.20;82.50;;;;;;1864456;77;21118;-85
2022/03/21 10:00:47;;;;;;;8.60;7.15;;;31.20;82.20;;;;;;1865095;75;21114;-85
2022/03/21 10:03:18;;;;;;;7.67;6.87;;;31.20;82.00;;;;;;1921577;73;21107;-83
2022/03/21 10:05:50;;;;;;;8.08;6.35;;;31.20;81.80;;;;;;1922494;73;21220;-82
2022/03/21 10:08:24;;;;;;;8.43;6.72;;;31.20;81.70;;;;;;1920465;73;21147;-84
2022/03/21 10:10:57;;;;;;;9.48;6.55;;;31.20;81.20;;;;;;1920901;74;21096;-84
2022/03/21 10:13:30;;;;;;;10.08;7.15;;;31.20;80.90;;;;;;1928321;74;21135;-84
2022/03/21 10:16:04;;;;;;;9.85;7.15;;;31.10;80.80;;;;;;1922548;73;21115;-83
2022/03/21 10:18:36;;;;;;;8.88;6.58;;;31.10;80.90;;;;;;1922136;74;21154;-85
2022/03/21 10:21:10;;;;;;;12.60;7.80;;;31.10;81.50;;;;;;1922009;73;21099;-85
2022/03/21 10:23:44;;;;;;;8.45;7.20;;;31.00;82.40;;;;;;1896108;74;21138;-86
2022/03/21 10:26:17;;;;;;;12.90;8.03;;;31.00;83.70;;;;;;1891541;74;21691;-86
2022/03/21 10:28:48;;;;;;;11.20;8.75;;;31.00;83.60;;;;;;1889974;75;21166;-85
2022/03/21 10:31:21;;;;;;;14.83;9.55;;;31.00;84.70;;;;;;1893479;74;21064;-85
2022/03/21 10:36:39;;;;;;;10.00;8.85;;;30.90;85.40;;;;;;1927291;71;21102;-83
2022/03/21 10:39:16;;;;;;;12.45;8.90;;;30.80;85.80;;;;;;1887953;73;21161;-83
2022/03/21 10:41:47;;;;;;;12.05;8.48;;;30.80;86.00;;;;;;1870993;76;21188;-83
2022/03/21 10:44:22;;;;;;;13.30;8.90;;;30.70;85.60;;;;;;1924028;72;21102;-82
2022/03/21 10:46:54;;;;;;;13.65;9.35;;;30.70;87.40;;;;;;1943499;72;21565;-83
2022/03/21 10:49:30;;;;;;;13.78;9.08;;;30.70;87.10;;;;;;1888343;73;21213;-83
2022/03/21 10:52:03;;;;;;;14.87;9.85;;;30.60;87.10;;;;;;1899562;74;21138;-83
2022/03/21 10:54:37;;;;;;;14.30;9.03;;;30.60;87.10;;;;;;1927499;73;21171;-83
2022/03/21 10:57:10;;;;;;;12.55;9.60;;;30.50;87.20;;;;;;1921790;73;21146;-80
2022/03/21 10:59:44;;;;;;;12.47;9.67;;;30.50;87.20;;;;;;1923391;73;21633;-82
2022/03/21 11:02:20;;;;;;;12.63;8.85;;;30.50;87.40;;;;;;1902993;73;21241;-82
2022/03/21 11:04:51;;;;;;;15.35;9.13;;;30.50;87.10;;;;;;1900240;73;21148;-83
2022/03/21 11:07:22;;;;;;;11.48;9.10;;;30.40;87.10;;;;;;1881615;74;22276;-83
2022/03/21 11:09:56;;;;;;;12.98;9.60;;;30.40;87.10;;;;;;1883532;75;21303;-82
2022/03/21 11:12:31;;;;;;;12.05;9.90;;;30.40;87.90;;;;;;1889954;74;21103;-83
2022/03/21 11:15:04;;;;;;;13.10;9.93;;;30.40;88.40;;;;;;1849419;76;21143;-82
2022/03/21 11:17:37;;;;;;;15.18;10.10;;;30.30;88.70;;;;;;1861017;74;21194;-84
2022/03/21 11:20:10;;;;;;;11.83;9.90;;;30.30;88.30;;;;;;1853801;76;21375;-83
2022/03/21 11:22:43;;;;;;;12.93;9.50;;;30.30;88.60;;;;;;1874966;75;21093;-82
2022/03/21 11:25:16;;;;;;;15.55;9.60;;;30.20;88.60;;;;;;1885190;74;21134;-81
2022/03/21 11:27:50;;;;;;;13.45;9.83;;;30.20;88.40;;;;;;1890162;75;21084;-82
2022/03/21 11:30:23;;;;;;;11.75;9.45;;;30.20;88.70;;;;;;1889822;75;21116;-83
2022/03/21 11:32:57;;;;;;;13.35;9.60;;;30.20;89.40;;;;;;1895499;74;21158;-81
2022/03/21 11:35:32;;;;;;;13.18;9.90;;;30.20;89.80;;;;;;1900292;74;21648;-82
2022/03/21 11:38:05;;;;;;;16.50;11.53;;;30.10;89.40;;;;;;1882152;75;21088;-82
2022/03/21 11:40:37;;;;;;;28.73;17.73;;;30.10;90.00;;;;;;1878318;76;21135;-82
2022/03/21 11:43:11;;;;;;;25.30;17.32;;;30.10;90.20;;;;;;1891168;75;21212;-82
2022/03/21 11:45:42;;;;;;;32.93;19.55;;;30.10;90.40;;;;;;1880686;76;21146;-82
2022/03/21 11:48:16;;;;;;;31.45;18.55;;;30.10;91.30;;;;;;1880204;74;21146;-84
2022/03/21 11:50:49;;;;;;;22.27;14.63;;;30.00;90.80;;;;;;1873362;75;21527;-82
2022/03/21 11:53:23;;;;;;;21.50;13.08;;;30.00;91.00;;;;;;1927868;73;21188;-82
2022/03/21 11:55:54;;;;;;;19.77;12.35;;;29.90;91.10;;;;;;1921760;73;21139;-84
2022/03/21 11:58:27;;;;;;;18.45;12.13;;;29.90;91.10;;;;;;1899687;74;21141;-82
2022/03/21 12:01:00;;;;;;;20.52;13.32;;;29.90;91.10;;;;;;1848440;74;21071;-83
2022/03/21 12:03:32;;;;;;;16.10;11.57;;;29.90;91.00;;;;;;1869195;76;21163;-83
2022/03/21 12:06:05;;;;;;;14.10;11.12;;;29.80;91.10;;;;;;1898295;73;21123;-84
2022/03/21 12:08:39;;;;;;;18.35;11.93;;;29.80;91.10;;;;;;1887739;74;21678;-83
2022/03/21 12:11:10;;;;;;;14.63;11.20;;;29.70;91.20;;;;;;1922787;74;21185;-83
2022/03/21 12:13:43;;;;;;;16.00;11.18;;;29.70;91.30;;;;;;1949264;72;21138;-83
2022/03/21 12:16:16;;;;;;;13.98;11.00;;;29.70;91.40;;;;;;1950347;73;21120;-84
2022/03/21 12:18:50;;;;;;;17.92;11.22;;;29.70;91.40;;;;;;1961825;72;21166;-84
2022/03/21 12:21:21;;;;;;;12.93;10.13;;;29.70;91.40;;;;;;1898380;73;21084;-84
2022/03/21 12:24:00;;;;;;;18.20;11.18;;;29.70;91.40;;;;;;1900333;73;21098;-82
2022/03/21 12:26:34;;;;;;;14.45;9.95;;;29.60;91.40;;;;;;1882179;74;21151;-82
2022/03/21 12:31:42;;;;;;;13.45;10.32;;;29.60;91.40;;;;;;1907607;73;21249;-82
2022/03/21 12:34:17;;;;;;;12.85;10.90;;;29.60;91.50;;;;;;1905634;74;21119;-83
2022/03/21 12:36:51;;;;;;;16.48;10.85;;;29.60;91.40;;;;;;1915920;73;21089;-82
2022/03/21 12:39:24;;;;;;;17.80;10.93;;;29.50;91.70;;;;;;1889451;74;21234;-82
2022/03/21 12:42:00;;;;;;;14.25;9.75;;;29.50;91.60;;;;;;1914523;74;21162;-83
2022/03/21 12:44:35;;;;;;;13.50;10.08;;;29.50;91.60;;;;;;1879710;74;21186;-83
2022/03/21 12:47:09;;;;;;;14.95;8.75;;;29.40;91.70;;;;;;1930258;73;21100;-83
2022/03/21 12:49:47;;;;;;;15.30;10.38;;;29.40;91.80;;;;;;1879663;73;21899;-82
2022/03/21 12:52:20;;;;;;;16.35;9.45;;;29.40;91.80;;;;;;1873944;76;21703;-84
2022/03/21 12:54:53;;;;;;;15.93;9.45;;;29.40;92.00;;;;;;1878729;75;21173;-83
2022/03/21 12:57:24;;;;;;;17.52;10.68;;;29.40;92.10;;;;;;1884493;75;21217;-83
2022/03/21 12:59:59;;;;;;;14.45;10.23;;;29.40;92.10;;;;;;1889882;74;21119;-86
2022/03/21 13:02:30;;;;;;;14.47;10.32;;;29.40;92.20;;;;;;1904419;74;21108;-83
2022/03/21 13:12:43;;;;;;;11.63;10.08;;;29.30;92.10;;;;;;1947305;72;21149;-84
2022/03/21 13:15:14;;;;;;;15.75;10.60;;;29.30;92.00;;;;;;1913442;73;21092;-83
2022/03/21 13:17:49;;;;;;;14.63;11.33;;;29.30;92.10;;;;;;1874338;73;21205;-85
2022/03/21 13:20:29;;;;;;;15.15;11.55;;;29.30;92.30;;;;;;1872494;75;21133;-84
2022/03/21 13:22:56;;;;;;;16.35;11.35;;;29.30;92.20;;;;;;1925591;73;21295;-84
2022/03/21 13:25:37;;;;;;;18.07;12.30;;;29.20;92.30;;;;;;1948425;70;21121;-85
2022/03/21 13:28:41;;;;;;;;;;;;;;;;;;;;;
2022/03/21 13:30:58;;;;;;;21.17;12.05;;;29.20;92.70;;;;;;1858246;74;21235;-82
2022/03/21 13:33:46;;;;;;;15.70;11.73;;;29.20;92.40;;;;;;1905769;73;21160;-81
2022/03/21 13:36:21;;;;;;;20.23;13.15;;;29.20;92.60;;;;;;1910068;73;21142;-83